AMM weather

Queen Alia International Airport
Amman, Amman Governorate, Jordan

Public forecast

Using degrees Celsius for public forecast. Weather courtesy of forecast.io.

Current aviation weather report (METAR) for Queen Alia International Airport

Retrieved 2020/04/06 08:00 UTC (17 minutes ago):

OJAI 060800Z 28008KT 5000 HZ NSC 16/09 Q1018 NOSIG

Aviation forecast (TAF) for Queen Alia International Airport

Retrieved 2020/04/06 06:00 UTC (2 hours ago):

TAF OJAI 060500Z 0606/0712 29012KT 6000 SCT100 PROB30 0701/0706 3000 PR PROB30 0701/0706 0800 FG